Time;durP1;ratioP1;P1;durP2;ratioP2;P2;SDS_P1;SDS_P2;PMS_P1;PMS_P2;Temp;Humidity;BMP_temperature;BMP_pressure;BME280_temperature;BME280_humidity;BME280_pressure;Samples;Min_cycle;Max_cycle;Signal;HPM_P1;HPM_P2
2023/04/09 00:00:35;;;;;;;;;;;8.50;99.90;;;;;;5080940;28;19987;-77
2023/04/09 00:03:01;;;;;;;;;;;8.60;99.90;;;;;;5097441;28;20429;-77
2023/04/09 00:05:26;;;;;;;;;;;8.60;99.90;;;;;;5062714;28;19924;-77
2023/04/09 00:07:52;;;;;;;;;;;8.50;99.90;;;;;;5080471;28;19927;-77
2023/04/09 00:10:18;;;;;;;;;;;8.50;99.90;;;;;;5080656;28;19924;-77
2023/04/09 00:12:43;;;;;;;;;;;8.50;99.90;;;;;;5089457;28;19970;-77
2023/04/09 00:15:09;;;;;;;;;;;8.50;99.90;;;;;;5073809;28;19975;-77
2023/04/09 00:17:35;;;;;;;;;;;8.50;99.90;;;;;;5079558;28;19939;-77
2023/04/09 00:20:00;;;;;;;;;;;8.50;99.90;;;;;;5077047;28;19928;-76
2023/04/09 00:22:26;;;;;;;;;;;8.50;99.90;;;;;;5078676;28;19924;-77
2023/04/09 00:24:52;;;;;;;;;;;8.50;99.90;;;;;;5095317;28;19924;-76
2023/04/09 00:27:17;;;;;;;;;;;8.60;99.90;;;;;;5078939;28;19935;-77
2023/04/09 00:29:43;;;;;;;;;;;8.50;99.90;;;;;;5080789;28;19948;-76
2023/04/09 00:32:09;;;;;;;;;;;8.50;99.90;;;;;;5062159;28;21987;-77
2023/04/09 00:34:35;;;;;;;;;;;8.40;99.90;;;;;;5078128;28;19931;-77
2023/04/09 00:37:01;;;;;;;;;;;8.40;99.90;;;;;;5095967;28;19932;-77
2023/04/09 00:39:26;;;;;;;;;;;8.40;99.90;;;;;;5078362;28;19924;-77
2023/04/09 00:42:01;;;;;;;;;;;8.40;99.90;;;;;;5062011;28;19924;-77
2023/04/09 00:44:26;;;;;;;;;;;8.40;99.90;;;;;;5078586;28;19932;-77
2023/04/09 00:46:54;;;;;;;;;;;8.40;99.90;;;;;;5094511;28;20405;-77
2023/04/09 00:49:20;;;;;;;;;;;8.40;99.90;;;;;;5093402;28;19925;-77
2023/04/09 00:51:47;;;;;;;;;;;8.40;99.90;;;;;;5078955;28;19931;-77
2023/04/09 00:54:13;;;;;;;;;;;8.40;99.90;;;;;;5078358;28;19980;-77
2023/04/09 00:56:39;;;;;;;;;;;8.40;99.90;;;;;;5075211;28;20014;-77
2023/04/09 00:59:05;;;;;;;;;;;8.40;99.90;;;;;;5078715;28;19924;-77
2023/04/09 01:01:30;;;;;;;;;;;8.40;99.90;;;;;;5079185;28;19928;-77
2023/04/09 01:03:56;;;;;;;;;;;8.30;99.90;;;;;;5078070;28;19946;-77
2023/04/09 01:06:31;;;;;;;;;;;8.30;99.90;;;;;;5061550;28;20382;-77
2023/04/09 01:09:03;;;;;;;;;;;8.30;99.90;;;;;;5072622;28;19937;-76
2023/04/09 01:11:37;;;;;;;;;;;8.30;99.90;;;;;;5079477;28;19945;-77
2023/04/09 01:14:07;;;;;;;;;;;8.30;99.90;;;;;;5077443;28;20267;-77
2023/04/09 01:16:34;;;;;;;;;;;8.20;99.90;;;;;;5078777;28;19924;-77
2023/04/09 01:19:01;;;;;;;;;;;8.20;99.90;;;;;;5077610;28;20014;-76
2023/04/09 01:21:32;;;;;;;;;;;8.20;99.90;;;;;;5078789;28;19928;-77
2023/04/09 01:24:04;;;;;;;;;;;8.20;99.90;;;;;;5077101;28;19924;-77
2023/04/09 01:26:48;;;;;;;;;;;8.20;99.90;;;;;;5068710;28;20305;-77
2023/04/09 01:29:15;;;;;;;;;;;8.10;99.90;;;;;;5077407;28;19930;-77
2023/04/09 01:31:41;;;;;;;;;;;8.10;99.90;;;;;;5078768;28;20241;-77
2023/04/09 01:34:07;;;;;;;;;;;8.10;99.90;;;;;;5078262;28;19930;-77
2023/04/09 01:36:34;;;;;;;;;;;8.10;99.90;;;;;;5068694;28;19924;-77
2023/04/09 01:39:01;;;;;;;;;;;8.10;99.90;;;;;;5060556;28;19969;-77
2023/04/09 01:41:27;;;;;;;;;;;8.10;99.90;;;;;;5096312;28;19946;-77
2023/04/09 01:43:52;;;;;;;;;;;8.10;99.90;;;;;;5077634;28;19928;-77
2023/04/09 01:46:19;;;;;;;;;;;8.10;99.90;;;;;;5076804;28;20016;-77
2023/04/09 01:48:45;;;;;;;;;;;8.00;99.90;;;;;;5077459;28;19924;-77
2023/04/09 01:51:14;;;;;;;;;;;8.10;99.90;;;;;;5077820;28;19932;-77
2023/04/09 01:53:40;;;;;;;;;;;8.00;99.90;;;;;;5078402;28;19924;-77
2023/04/09 01:56:06;;;;;;;;;;;8.00;99.90;;;;;;5077445;28;19970;-77
2023/04/09 01:58:35;;;;;;;;;;;8.00;99.90;;;;;;5097207;28;19986;-77
2023/04/09 02:01:27;;;;;;;;;;;8.00;99.90;;;;;;5078476;28;19928;-76
2023/04/09 02:03:59;;;;;;;;;;;8.00;99.90;;;;;;5047296;28;20023;-77
2023/04/09 02:06:31;;;;;;;;;;;8.00;99.90;;;;;;5078996;28;19972;-77
2023/04/09 02:08:59;;;;;;;;;;;8.00;99.90;;;;;;5095776;28;20011;-77
2023/04/09 02:11:25;;;;;;;;;;;8.00;99.90;;;;;;5078147;28;19928;-76
2023/04/09 02:13:53;;;;;;;;;;;8.00;99.90;;;;;;5050914;28;19978;-77
2023/04/09 02:16:19;;;;;;;;;;;8.00;99.90;;;;;;5082286;28;19924;-77
2023/04/09 02:18:45;;;;;;;;;;;8.00;99.90;;;;;;5065883;28;19931;-77
2023/04/09 02:21:12;;;;;;;;;;;8.00;99.90;;;;;;5062981;28;19924;-77
2023/04/09 02:23:38;;;;;;;;;;;8.00;99.90;;;;;;5066413;28;19924;-77
2023/04/09 02:26:03;;;;;;;;;;;7.90;99.90;;;;;;5082217;28;20472;-77
2023/04/09 02:28:29;;;;;;;;;;;7.90;99.90;;;;;;5077810;28;19932;-77
2023/04/09 02:30:55;;;;;;;;;;;7.90;99.90;;;;;;5067568;28;19971;-77
2023/04/09 02:33:20;;;;;;;;;;;7.90;99.90;;;;;;5062070;28;19935;-77
2023/04/09 02:35:46;;;;;;;;;;;7.90;99.90;;;;;;5099999;28;19924;-77
2023/04/09 02:38:13;;;;;;;;;;;7.90;99.90;;;;;;5096427;28;19944;-77
2023/04/09 02:40:40;;;;;;;;;;;7.90;99.90;;;;;;5081409;28;20017;-77
2023/04/09 02:43:05;;;;;;;;;;;7.80;99.90;;;;;;5093691;28;19979;-77
2023/04/09 02:45:31;;;;;;;;;;;7.80;99.90;;;;;;5050796;28;20328;-76
2023/04/09 02:47:56;;;;;;;;;;;7.80;99.90;;;;;;5068150;28;19928;-76
2023/04/09 02:50:22;;;;;;;;;;;7.90;99.90;;;;;;5063686;28;19932;-76
2023/04/09 02:52:48;;;;;;;;;;;7.90;99.90;;;;;;5062927;28;19947;-77
2023/04/09 02:55:14;;;;;;;;;;;7.90;99.90;;;;;;5065427;28;19924;-77
2023/04/09 02:57:40;;;;;;;;;;;7.90;99.90;;;;;;5061284;28;19932;-77
2023/04/09 03:00:06;;;;;;;;;;;7.90;99.90;;;;;;5081969;28;19935;-77
2023/04/09 03:02:31;;;;;;;;;;;7.90;99.90;;;;;;5077065;28;19951;-77
2023/04/09 03:04:57;;;;;;;;;;;7.90;99.90;;;;;;5057589;28;20333;-77
2023/04/09 03:07:22;;;;;;;;;;;7.90;99.90;;;;;;5079385;28;19928;-77
2023/04/09 03:09:48;;;;;;;;;;;7.90;99.90;;;;;;5080386;28;20158;-77
2023/04/09 03:12:14;;;;;;;;;;;7.90;99.90;;;;;;5080604;28;19928;-77
2023/04/09 03:14:39;;;;;;;;;;;7.90;99.90;;;;;;5063511;28;20038;-77
2023/04/09 03:17:05;;;;;;;;;;;7.90;99.90;;;;;;5062927;28;19931;-77
2023/04/09 03:19:30;;;;;;;;;;;7.90;99.90;;;;;;5061526;28;19946;-77
2023/04/09 03:21:56;;;;;;;;;;;7.90;99.90;;;;;;5064451;28;19935;-77
2023/04/09 03:24:21;;;;;;;;;;;7.80;99.90;;;;;;5081187;28;20375;-77
2023/04/09 03:26:47;;;;;;;;;;;7.90;99.90;;;;;;5058093;28;19963;-77
2023/04/09 03:29:13;;;;;;;;;;;7.80;99.90;;;;;;5080912;28;19924;-77
2023/04/09 03:31:38;;;;;;;;;;;7.80;99.90;;;;;;5077394;28;20147;-77
2023/04/09 03:34:04;;;;;;;;;;;7.80;99.90;;;;;;5097134;28;19924;-77
2023/04/09 03:36:30;;;;;;;;;;;7.80;99.90;;;;;;5079975;28;20287;-77
2023/04/09 03:38:55;;;;;;;;;;;7.80;99.90;;;;;;5071985;28;20371;-78
2023/04/09 03:41:21;;;;;;;;;;;7.80;99.90;;;;;;5079073;28;19931;-77
2023/04/09 03:43:46;;;;;;;;;;;7.80;99.90;;;;;;5062266;28;20390;-76
2023/04/09 03:46:12;;;;;;;;;;;7.80;99.90;;;;;;5062647;28;19924;-77
2023/04/09 03:48:38;;;;;;;;;;;7.80;99.90;;;;;;5096737;28;19924;-77
2023/04/09 03:51:04;;;;;;;;;;;7.80;99.90;;;;;;5062696;28;20092;-77
2023/04/09 03:53:29;;;;;;;;;;;7.70;99.90;;;;;;5080259;28;19985;-77
2023/04/09 03:55:55;;;;;;;;;;;7.80;99.90;;;;;;5079717;28;20011;-77
2023/04/09 03:58:21;;;;;;;;;;;7.80;99.90;;;;;;5080400;28;20238;-77
2023/04/09 04:00:47;;;;;;;;;;;7.70;99.90;;;;;;5060408;28;19924;-77
2023/04/09 04:03:14;;;;;;;;;;;7.70;99.90;;;;;;5073625;28;19931;-77
2023/04/09 04:05:40;;;;;;;;;;;7.80;99.90;;;;;;5077715;28;19971;-77
2023/04/09 04:08:06;;;;;;;;;;;7.70;99.90;;;;;;5059977;28;19946;-77
2023/04/09 04:10:32;;;;;;;;;;;7.70;99.90;;;;;;5075566;28;19924;-77
2023/04/09 04:12:58;;;;;;;;;;;7.80;99.90;;;;;;5077868;28;19928;-77
2023/04/09 04:15:24;;;;;;;;;;;7.80;99.90;;;;;;5059620;28;19970;-77
2023/04/09 04:17:49;;;;;;;;;;;7.80;99.90;;;;;;5076100;28;20004;-77
2023/04/09 04:20:15;;;;;;;;;;;7.80;99.90;;;;;;5080138;28;20506;-77
2023/04/09 04:22:40;;;;;;;;;;;7.70;99.90;;;;;;5056853;28;19932;-77
2023/04/09 04:25:06;;;;;;;;;;;7.80;99.90;;;;;;5075236;28;19928;-77
2023/04/09 04:27:32;;;;;;;;;;;7.70;99.90;;;;;;5091409;28;19924;-77
2023/04/09 04:29:58;;;;;;;;;;;7.80;99.90;;;;;;5078419;28;19988;-77
2023/04/09 04:32:24;;;;;;;;;;;7.80;99.90;;;;;;5095613;28;20036;-77
2023/04/09 04:34:50;;;;;;;;;;;7.80;99.90;;;;;;5079965;28;19932;-77
2023/04/09 04:37:15;;;;;;;;;;;7.80;99.90;;;;;;5098114;28;19924;-77
2023/04/09 04:39:41;;;;;;;;;;;7.80;99.90;;;;;;5073275;28;19924;-77
2023/04/09 04:42:06;;;;;;;;;;;7.80;99.90;;;;;;5079220;28;19966;-77
2023/04/09 04:44:32;;;;;;;;;;;7.80;99.90;;;;;;5080124;28;19975;-77
2023/04/09 04:46:58;;;;;;;;;;;7.80;99.90;;;;;;5061902;28;19980;-76
2023/04/09 04:49:23;;;;;;;;;;;7.80;99.90;;;;;;5080461;28;20310;-77
2023/04/09 04:51:49;;;;;;;;;;;7.80;99.90;;;;;;5078658;28;20460;-77
2023/04/09 04:54:14;;;;;;;;;;;7.80;99.90;;;;;;5080127;28;19924;-76
2023/04/09 04:56:40;;;;;;;;;;;7.80;99.90;;;;;;5080004;28;19924;-77
2023/04/09 04:59:05;;;;;;;;;;;7.80;99.90;;;;;;5079740;28;19989;-76
2023/04/09 05:01:31;;;;;;;;;;;7.80;99.90;;;;;;5078520;28;20292;-77
2023/04/09 05:03:57;;;;;;;;;;;7.80;99.90;;;;;;5087675;28;19947;-77
2023/04/09 05:06:22;;;;;;;;;;;7.80;99.90;;;;;;5061031;28;19924;-77
2023/04/09 05:08:48;;;;;;;;;;;7.80;99.90;;;;;;5079457;28;19983;-77
2023/04/09 05:11:15;;;;;;;;;;;7.80;99.90;;;;;;5077938;28;19932;-77
2023/04/09 05:13:41;;;;;;;;;;;7.80;99.90;;;;;;5097032;28;19924;-77
2023/04/09 05:16:06;;;;;;;;;;;7.80;99.90;;;;;;5092769;28;20396;-77
2023/04/09 05:18:32;;;;;;;;;;;7.90;99.90;;;;;;5079115;28;19931;-77
2023/04/09 05:20:58;;;;;;;;;;;7.80;99.90;;;;;;5060078;28;19932;-77
2023/04/09 05:23:23;;;;;;;;;;;7.80;99.90;;;;;;5067145;28;19944;-77
2023/04/09 05:25:49;;;;;;;;;;;7.80;99.90;;;;;;5058996;28;19928;-76
2023/04/09 05:28:15;;;;;;;;;;;7.90;99.90;;;;;;5095051;28;19924;-76
2023/04/09 05:30:45;;;;;;;;;;;7.90;99.90;;;;;;5062959;28;19928;-77
2023/04/09 05:33:10;;;;;;;;;;;7.90;99.90;;;;;;5095982;28;19925;-76
2023/04/09 05:35:39;;;;;;;;;;;7.90;99.90;;;;;;5061427;28;19966;-77
2023/04/09 05:38:05;;;;;;;;;;;7.90;99.90;;;;;;5058466;28;19969;-77
2023/04/09 05:40:30;;;;;;;;;;;7.90;99.90;;;;;;5076984;28;19928;-77
2023/04/09 05:42:56;;;;;;;;;;;7.90;99.90;;;;;;5079133;28;19924;-77
2023/04/09 05:45:22;;;;;;;;;;;7.90;99.90;;;;;;5057663;28;19924;-77
2023/04/09 05:47:47;;;;;;;;;;;7.90;99.90;;;;;;5059712;28;19935;-77
2023/04/09 05:50:13;;;;;;;;;;;7.90;99.90;;;;;;5082043;28;19924;-77
2023/04/09 05:52:38;;;;;;;;;;;7.90;99.90;;;;;;5081596;28;19935;-77
2023/04/09 05:55:05;;;;;;;;;;;7.90;99.90;;;;;;5081663;28;19924;-77
2023/04/09 05:57:31;;;;;;;;;;;7.90;99.90;;;;;;5081888;28;19927;-77
2023/04/09 05:59:57;;;;;;;;;;;8.00;99.90;;;;;;5081562;28;20252;-76
2023/04/09 06:02:23;;;;;;;;;;;8.00;99.90;;;;;;5082821;28;19924;-77
2023/04/09 06:04:49;;;;;;;;;;;8.00;99.90;;;;;;5100455;28;19928;-77
2023/04/09 06:07:15;;;;;;;;;;;8.00;99.90;;;;;;5099757;28;20018;-77
2023/04/09 06:09:42;;;;;;;;;;;8.00;99.90;;;;;;5063202;28;19924;-77
2023/04/09 06:12:08;;;;;;;;;;;8.00;99.90;;;;;;5100861;28;19928;-77
2023/04/09 06:14:34;;;;;;;;;;;8.00;99.90;;;;;;5081124;28;20032;-77
2023/04/09 06:16:59;;;;;;;;;;;8.00;99.90;;;;;;5065592;28;19957;-77
2023/04/09 06:19:25;;;;;;;;;;;8.00;99.90;;;;;;5099664;28;19955;-77
2023/04/09 06:21:51;;;;;;;;;;;8.00;99.90;;;;;;5063557;28;19924;-77
2023/04/09 06:24:16;;;;;;;;;;;8.00;99.90;;;;;;5081474;28;19928;-77
2023/04/09 06:26:42;;;;;;;;;;;8.00;99.90;;;;;;5082971;28;20011;-77
2023/04/09 06:29:07;;;;;;;;;;;8.10;99.90;;;;;;5081717;28;19935;-77
2023/04/09 06:31:33;;;;;;;;;;;8.10;99.90;;;;;;5080804;28;20294;-77
2023/04/09 06:33:59;;;;;;;;;;;8.10;99.90;;;;;;5056189;28;19954;-77
2023/04/09 06:36:26;;;;;;;;;;;8.10;99.90;;;;;;5095081;28;20003;-77
2023/04/09 06:38:51;;;;;;;;;;;8.10;99.90;;;;;;5081233;28;19924;-77
2023/04/09 06:41:19;;;;;;;;;;;8.20;99.90;;;;;;5080664;28;20437;-77
2023/04/09 06:43:45;;;;;;;;;;;8.20;99.90;;;;;;5079767;28;19928;-76
2023/04/09 06:46:12;;;;;;;;;;;8.20;99.90;;;;;;5058603;28;19948;-77
2023/04/09 06:48:37;;;;;;;;;;;8.20;99.90;;;;;;5076835;28;19924;-77
2023/04/09 06:51:03;;;;;;;;;;;8.20;99.90;;;;;;5097512;28;19935;-78
2023/04/09 06:53:29;;;;;;;;;;;8.20;99.90;;;;;;5056906;28;19928;-77
2023/04/09 06:55:55;;;;;;;;;;;8.20;99.90;;;;;;5074476;28;19924;-77
2023/04/09 06:58:20;;;;;;;;;;;8.20;99.90;;;;;;5079746;28;19960;-77
2023/04/09 07:00:46;;;;;;;;;;;8.20;99.90;;;;;;5078514;28;19991;-77
2023/04/09 07:03:13;;;;;;;;;;;8.30;99.90;;;;;;5077313;28;20291;-77
2023/04/09 07:05:38;;;;;;;;;;;8.30;99.90;;;;;;5094767;28;19956;-77
2023/04/09 07:08:04;;;;;;;;;;;8.30;99.90;;;;;;5061779;28;19935;-77
2023/04/09 07:10:29;;;;;;;;;;;8.30;99.90;;;;;;5077427;28;19935;-77
2023/04/09 07:12:55;;;;;;;;;;;8.30;99.90;;;;;;5062739;28;19924;-78
2023/04/09 07:15:21;;;;;;;;;;;8.40;99.90;;;;;;5075060;28;19924;-77
2023/04/09 07:17:46;;;;;;;;;;;8.40;99.90;;;;;;5079550;28;19935;-77
2023/04/09 07:20:12;;;;;;;;;;;8.40;99.90;;;;;;5064008;28;20045;-77
2023/04/09 07:22:38;;;;;;;;;;;8.40;99.90;;;;;;5095928;28;19924;-77
2023/04/09 07:25:03;;;;;;;;;;;8.40;99.90;;;;;;5078514;28;20025;-77
2023/04/09 07:27:29;;;;;;;;;;;8.50;99.90;;;;;;5080984;28;19967;-77
2023/04/09 07:29:58;;;;;;;;;;;8.50;99.90;;;;;;5081446;28;19957;-77
2023/04/09 07:32:25;;;;;;;;;;;8.60;99.90;;;;;;5076540;28;19924;-77
2023/04/09 07:34:51;;;;;;;;;;;8.60;99.90;;;;;;5096793;28;20493;-77
2023/04/09 07:37:17;;;;;;;;;;;8.70;99.90;;;;;;5075921;28;19928;-77
2023/04/09 07:39:42;;;;;;;;;;;8.80;99.90;;;;;;5059177;28;20015;-77
2023/04/09 07:42:08;;;;;;;;;;;8.90;99.90;;;;;;5075045;28;19940;-77
2023/04/09 07:44:35;;;;;;;;;;;8.90;99.90;;;;;;5061233;28;19939;-77
2023/04/09 07:47:01;;;;;;;;;;;9.00;99.90;;;;;;5091003;28;19925;-77
2023/04/09 07:49:26;;;;;;;;;;;9.10;99.90;;;;;;5071491;28;19935;-77
2023/04/09 07:51:52;;;;;;;;;;;9.20;99.90;;;;;;5079845;28;19994;-77
2023/04/09 07:54:19;;;;;;;;;;;9.30;99.90;;;;;;5078516;28;19924;-77
2023/04/09 07:56:45;;;;;;;;;;;9.30;99.90;;;;;;5095390;28;19924;-77
2023/04/09 07:59:11;;;;;;;;;;;9.40;99.90;;;;;;5077888;28;20027;-77
2023/04/09 08:01:37;;;;;;;;;;;9.50;99.90;;;;;;5095310;28;19971;-77
2023/04/09 08:04:02;;;;;;;;;;;9.50;99.90;;;;;;5076826;28;19931;-77
2023/04/09 08:06:28;;;;;;;;;;;9.50;99.90;;;;;;5059154;28;19935;-77
2023/04/09 08:08:54;;;;;;;;;;;9.60;99.90;;;;;;5080641;28;19924;-77
2023/04/09 08:11:24;;;;;;;;;;;9.60;99.90;;;;;;5097242;28;20366;-77
2023/04/09 08:13:52;;;;;;;;;;;9.60;99.90;;;;;;5097894;28;20396;-77
2023/04/09 08:16:17;;;;;;;;;;;9.70;99.90;;;;;;5094826;28;19932;-76
2023/04/09 08:18:43;;;;;;;;;;;9.80;99.90;;;;;;5080793;28;19934;-77
2023/04/09 08:21:08;;;;;;;;;;;9.80;99.90;;;;;;5080409;28;20011;-77
2023/04/09 08:23:34;;;;;;;;;;;9.90;99.90;;;;;;5097387;28;19923;-77
2023/04/09 08:26:00;;;;;;;;;;;9.90;99.90;;;;;;5080366;28;19924;-77
2023/04/09 08:28:26;;;;;;;;;;;10.00;99.90;;;;;;5062998;28;19928;-77
2023/04/09 08:30:51;;;;;;;;;;;10.20;99.90;;;;;;5062534;28;19931;-77
2023/04/09 08:33:17;;;;;;;;;;;10.40;99.90;;;;;;5094868;28;20291;-77
2023/04/09 08:35:43;;;;;;;;;;;10.40;99.90;;;;;;5080703;28;19924;-77
2023/04/09 08:38:08;;;;;;;;;;;10.40;99.90;;;;;;5053671;28;19931;-77
2023/04/09 08:40:34;;;;;;;;;;;10.50;99.90;;;;;;5081462;28;19928;-77
2023/04/09 08:43:03;;;;;;;;;;;10.60;99.90;;;;;;5096550;28;19928;-77
2023/04/09 08:45:28;;;;;;;;;;;10.60;99.90;;;;;;5079178;28;20312;-77
2023/04/09 08:47:58;;;;;;;;;;;10.80;99.90;;;;;;5062927;28;19932;-77
2023/04/09 08:50:27;;;;;;;;;;;10.90;99.90;;;;;;5095578;28;19924;-77
2023/04/09 08:52:53;;;;;;;;;;;11.10;99.90;;;;;;5079589;28;19946;-77
2023/04/09 08:55:19;;;;;;;;;;;11.30;99.90;;;;;;5061741;28;19928;-77
2023/04/09 08:57:44;;;;;;;;;;;11.40;99.90;;;;;;5096082;28;20002;-77
2023/04/09 09:00:11;;;;;;;;;;;11.70;99.90;;;;;;5060847;28;20326;-77
2023/04/09 09:02:38;;;;;;;;;;;11.90;99.90;;;;;;5061284;28;19931;-77
2023/04/09 09:05:03;;;;;;;;;;;11.80;99.90;;;;;;5079883;28;19928;-77
2023/04/09 09:07:29;;;;;;;;;;;11.90;99.90;;;;;;5079171;28;19970;-78
2023/04/09 09:09:56;;;;;;;;;;;12.30;99.90;;;;;;5097056;28;19928;-78
2023/04/09 09:12:38;;;;;;;;;;;12.90;99.90;;;;;;5079653;28;19924;-78
2023/04/09 09:15:05;;;;;;;;;;;13.40;99.90;;;;;;5079652;28;19928;-78
2023/04/09 09:17:31;;;;;;;;;;;14.00;99.90;;;;;;5076593;28;19995;-78
2023/04/09 09:19:57;;;;;;;;;;;14.50;99.90;;;;;;5076890;28;19955;-77
2023/04/09 09:22:23;;;;;;;;;;;14.90;99.90;;;;;;5060839;28;20026;-78
2023/04/09 09:24:50;;;;;;;;;;;15.30;99.90;;;;;;5081317;28;19924;-78
2023/04/09 09:27:41;;;;;;;;;;;15.60;99.90;;;;;;5065426;28;19928;-78
2023/04/09 09:30:07;;;;;;;;;;;15.70;99.90;;;;;;5081185;28;19928;-78
2023/04/09 09:32:33;;;;;;;;;;;15.60;99.90;;;;;;5064951;28;19942;-78
2023/04/09 09:34:58;;;;;;;;;;;15.70;99.90;;;;;;5063022;28;19946;-78
2023/04/09 09:37:25;;;;;;;;;;;15.70;99.30;;;;;;5098178;28;19971;-78
2023/04/09 09:39:51;;;;;;;;;;;15.80;99.90;;;;;;5083924;28;19932;-78
2023/04/09 09:42:16;;;;;;;;;;;15.80;99.90;;;;;;5061386;28;20295;-78
2023/04/09 09:44:42;;;;;;;;;;;15.90;99.90;;;;;;5082136;28;19923;-78
2023/04/09 09:47:08;;;;;;;;;;;16.20;99.90;;;;;;5080880;28;19978;-78
2023/04/09 09:49:33;;;;;;;;;;;16.50;97.10;;;;;;5083649;28;19935;-78
2023/04/09 09:52:01;;;;;;;;;;;16.70;98.10;;;;;;5099715;28;19928;-78
2023/04/09 09:54:29;;;;;;;;;;;16.80;99.00;;;;;;5098612;28;20011;-78
2023/04/09 09:56:56;;;;;;;;;;;16.70;98.70;;;;;;5100276;28;20291;-78
2023/04/09 09:59:25;;;;;;;;;;;16.70;93.30;;;;;;5083133;28;19924;-78
2023/04/09 10:01:54;;;;;;;;;;;16.80;94.10;;;;;;5096782;28;19924;-78
2023/04/09 10:04:20;;;;;;;;;;;17.00;92.40;;;;;;5080718;28;19931;-78
2023/04/09 10:06:46;;;;;;;;;;;17.40;96.70;;;;;;5052979;28;19925;-78
2023/04/09 10:09:11;;;;;;;;;;;17.60;95.30;;;;;;5097726;28;19955;-78
2023/04/09 10:11:41;;;;;;;;;;;17.70;94.60;;;;;;5080956;28;19935;-78
2023/04/09 10:14:07;;;;;;;;;;;17.60;91.80;;;;;;5082355;28;19935;-78
2023/04/09 10:16:32;;;;;;;;;;;17.40;94.00;;;;;;5064122;28;20286;-78
2023/04/09 10:18:58;;;;;;;;;;;17.20;91.10;;;;;;5065339;28;19932;-78
2023/04/09 10:21:46;;;;;;;;;;;17.10;90.90;;;;;;5101218;28;19947;-78
2023/04/09 10:24:12;;;;;;;;;;;16.90;94.20;;;;;;5079933;28;19967;-78
2023/04/09 10:26:43;;;;;;;;;;;16.60;88.90;;;;;;5081711;28;20422;-78
2023/04/09 10:29:12;;;;;;;;;;;16.40;92.40;;;;;;5082782;28;20287;-78
2023/04/09 10:31:44;;;;;;;;;;;16.20;98.80;;;;;;5079611;28;20009;-78
2023/04/09 10:34:10;;;;;;;;;;;15.80;96.50;;;;;;5079336;28;19974;-78
2023/04/09 10:36:35;;;;;;;;;;;15.90;94.10;;;;;;5063589;28;19924;-78
2023/04/09 10:39:10;;;;;;;;;;;16.00;93.10;;;;;;5053290;28;19928;-78
2023/04/09 10:41:36;;;;;;;;;;;15.80;92.10;;;;;;5080980;28;19928;-78
2023/04/09 10:44:05;;;;;;;;;;;15.90;92.20;;;;;;5081598;28;20054;-77
2023/04/09 10:46:35;;;;;;;;;;;15.70;94.50;;;;;;5105465;28;19925;-77
2023/04/09 10:49:07;;;;;;;;;;;15.60;95.40;;;;;;5064363;28;19924;-78
2023/04/09 10:51:34;;;;;;;;;;;15.40;93.80;;;;;;5079090;28;19928;-78
2023/04/09 10:53:59;;;;;;;;;;;15.50;96.50;;;;;;5077088;28;19924;-77
2023/04/09 10:56:25;;;;;;;;;;;15.50;97.40;;;;;;5064593;28;19978;-78
2023/04/09 10:58:51;;;;;;;;;;;15.60;93.80;;;;;;5082044;28;19924;-77
2023/04/09 11:01:23;;;;;;;;;;;15.80;93.70;;;;;;5065711;28;19924;-78
2023/04/09 11:04:06;;;;;;;;;;;15.90;94.40;;;;;;5075488;28;19924;-78
2023/04/09 11:06:34;;;;;;;;;;;15.90;92.20;;;;;;5071277;28;20461;-78
2023/04/09 11:09:01;;;;;;;;;;;15.80;91.80;;;;;;5082057;28;19928;-78
2023/04/09 11:11:28;;;;;;;;;;;15.60;92.70;;;;;;5097596;28;20433;-78
2023/04/09 11:13:57;;;;;;;;;;;15.60;91.30;;;;;;5097594;28;19939;-78
2023/04/09 11:16:22;;;;;;;;;;;15.40;94.70;;;;;;5078460;28;19935;-78
2023/04/09 11:18:48;;;;;;;;;;;15.30;93.50;;;;;;5063527;28;19930;-78
2023/04/09 11:21:16;;;;;;;;;;;15.50;93.40;;;;;;5083233;28;20420;-79
2023/04/09 11:23:50;;;;;;;;;;;15.50;92.00;;;;;;5076616;28;19924;-78
2023/04/09 11:26:15;;;;;;;;;;;15.60;93.40;;;;;;5078270;28;19924;-78
2023/04/09 11:28:42;;;;;;;;;;;15.50;87.40;;;;;;5095061;28;20329;-78
2023/04/09 11:31:08;;;;;;;;;;;15.60;88.30;;;;;;5080785;28;19928;-78
2023/04/09 11:33:33;;;;;;;;;;;15.70;90.50;;;;;;5081598;28;19924;-78
2023/04/09 11:35:59;;;;;;;;;;;15.70;89.30;;;;;;5081087;28;20363;-78
2023/04/09 11:38:24;;;;;;;;;;;15.50;85.90;;;;;;5074815;28;19928;-78
2023/04/09 11:40:56;;;;;;;;;;;15.40;88.20;;;;;;5062350;28;19959;-82
2023/04/09 11:43:23;;;;;;;;;;;15.40;90.40;;;;;;5091508;28;19939;-73
2023/04/09 11:45:49;;;;;;;;;;;15.50;87.00;;;;;;5075998;28;20054;-78
2023/04/09 11:48:17;;;;;;;;;;;15.70;91.10;;;;;;5080875;28;19971;-77
2023/04/09 11:50:42;;;;;;;;;;;15.90;96.00;;;;;;5097637;28;20001;-77
2023/04/09 11:53:15;;;;;;;;;;;16.20;91.50;;;;;;5098997;28;19932;-78
2023/04/09 11:55:40;;;;;;;;;;;16.50;89.00;;;;;;5080865;28;19924;-77
2023/04/09 11:58:10;;;;;;;;;;;16.60;86.50;;;;;;5080878;28;19924;-77
2023/04/09 12:00:39;;;;;;;;;;;16.70;82.90;;;;;;5098014;28;20401;-77
2023/04/09 12:03:05;;;;;;;;;;;16.60;87.00;;;;;;5080246;28;19932;-77
2023/04/09 12:05:32;;;;;;;;;;;16.50;81.00;;;;;;5081034;28;19935;-78
2023/04/09 12:07:59;;;;;;;;;;;16.30;81.10;;;;;;5098680;28;19930;-78
2023/04/09 12:10:26;;;;;;;;;;;16.40;86.40;;;;;;5097490;28;19939;-78
2023/04/09 12:12:52;;;;;;;;;;;16.30;84.40;;;;;;5080836;28;19935;-78
2023/04/09 12:15:22;;;;;;;;;;;16.30;81.30;;;;;;5080834;28;19927;-78
2023/04/09 12:17:48;;;;;;;;;;;16.40;89.70;;;;;;5079854;28;19975;-77
2023/04/09 12:20:25;;;;;;;;;;;16.40;85.80;;;;;;5072010;28;19935;-82
2023/04/09 12:22:50;;;;;;;;;;;16.40;82.90;;;;;;5096033;28;19924;-82
2023/04/09 12:25:16;;;;;;;;;;;16.40;80.40;;;;;;5068092;28;19978;-81
2023/04/09 12:27:41;;;;;;;;;;;16.50;80.50;;;;;;5074677;28;19928;-82
2023/04/09 12:30:07;;;;;;;;;;;16.60;84.20;;;;;;5063777;28;19924;-82
2023/04/09 12:32:33;;;;;;;;;;;16.60;77.80;;;;;;5063883;28;19928;-81
2023/04/09 12:34:58;;;;;;;;;;;16.60;80.70;;;;;;5080679;28;19924;-81
2023/04/09 12:37:24;;;;;;;;;;;16.60;78.10;;;;;;5060951;28;19924;-81
2023/04/09 12:39:50;;;;;;;;;;;16.60;80.30;;;;;;5096770;28;19975;-82
2023/04/09 12:42:16;;;;;;;;;;;16.70;80.40;;;;;;5079052;28;19925;-82
2023/04/09 12:44:41;;;;;;;;;;;16.60;79.80;;;;;;5079418;28;19935;-82
2023/04/09 12:47:07;;;;;;;;;;;16.60;78.50;;;;;;5061904;28;20423;-82
2023/04/09 12:49:33;;;;;;;;;;;16.50;80.50;;;;;;5062962;28;19988;-81
2023/04/09 12:51:58;;;;;;;;;;;16.40;79.20;;;;;;5076209;28;19970;-82
2023/04/09 12:54:25;;;;;;;;;;;16.40;79.80;;;;;;5059508;28;20445;-82
2023/04/09 12:56:51;;;;;;;;;;;16.30;78.10;;;;;;5058968;28;20272;-81
2023/04/09 12:59:16;;;;;;;;;;;16.30;80.40;;;;;;5092892;28;19931;-81
2023/04/09 13:01:42;;;;;;;;;;;16.30;79.20;;;;;;5077017;28;20022;-83
2023/04/09 13:04:07;;;;;;;;;;;16.30;82.60;;;;;;5058419;28;19931;-79
2023/04/09 13:06:33;;;;;;;;;;;16.10;82.60;;;;;;5063208;28;19946;-78
2023/04/09 13:08:58;;;;;;;;;;;16.10;81.60;;;;;;5063424;28;19963;-79
2023/04/09 13:11:24;;;;;;;;;;;16.00;81.30;;;;;;5080260;28;20302;-78
2023/04/09 13:13:50;;;;;;;;;;;15.90;79.10;;;;;;5097010;28;19950;-79
2023/04/09 13:16:16;;;;;;;;;;;16.00;82.10;;;;;;5061951;28;19924;-78
2023/04/09 13:18:42;;;;;;;;;;;16.10;77.10;;;;;;5096732;28;19973;-78
2023/04/09 13:21:07;;;;;;;;;;;16.20;80.60;;;;;;5061062;28;19931;-79
2023/04/09 13:23:33;;;;;;;;;;;16.40;79.60;;;;;;5078727;28;19984;-79
2023/04/09 13:26:00;;;;;;;;;;;16.50;79.70;;;;;;5079404;28;19925;-79
2023/04/09 13:28:25;;;;;;;;;;;16.60;78.00;;;;;;5079241;28;20382;-78
2023/04/09 13:30:51;;;;;;;;;;;16.80;78.30;;;;;;5062182;28;19924;-79
2023/04/09 13:33:17;;;;;;;;;;;16.90;78.70;;;;;;5060961;28;19932;-79
2023/04/09 13:35:43;;;;;;;;;;;16.80;79.60;;;;;;5079526;28;20057;-78
2023/04/09 13:38:08;;;;;;;;;;;16.70;78.10;;;;;;5081541;28;19931;-79
2023/04/09 13:40:34;;;;;;;;;;;16.70;81.40;;;;;;5061384;28;20342;-79
2023/04/09 13:42:59;;;;;;;;;;;16.50;76.70;;;;;;5059171;28;19968;-79
2023/04/09 13:45:25;;;;;;;;;;;16.40;79.60;;;;;;5056623;28;19928;-78
2023/04/09 13:47:51;;;;;;;;;;;16.30;79.40;;;;;;5079213;28;19924;-79
2023/04/09 13:50:16;;;;;;;;;;;16.30;76.80;;;;;;5062775;28;20123;-79
2023/04/09 13:52:42;;;;;;;;;;;16.40;74.40;;;;;;5059743;28;20383;-79
2023/04/09 13:55:08;;;;;;;;;;;16.30;78.80;;;;;;5077389;28;20018;-79
2023/04/09 13:57:33;;;;;;;;;;;16.30;72.60;;;;;;5072124;28;19924;-78
2023/04/09 14:00:02;;;;;;;;;;;16.20;71.90;;;;;;5096168;28;19977;-79
2023/04/09 14:02:28;;;;;;;;;;;16.30;71.70;;;;;;5095694;28;20342;-79
2023/04/09 14:04:54;;;;;;;;;;;16.40;71.10;;;;;;5096102;28;19931;-79
2023/04/09 14:07:19;;;;;;;;;;;16.50;72.40;;;;;;5093617;28;19928;-78
2023/04/09 14:09:46;;;;;;;;;;;16.60;70.10;;;;;;5080810;28;19935;-79
2023/04/09 14:12:11;;;;;;;;;;;16.60;72.50;;;;;;5082901;28;19928;-79
2023/04/09 14:14:37;;;;;;;;;;;16.70;68.20;;;;;;5080926;28;20306;-79
2023/04/09 14:17:02;;;;;;;;;;;16.80;72.90;;;;;;5081819;28;19924;-79
2023/04/09 14:19:28;;;;;;;;;;;16.90;70.90;;;;;;5059660;28;19932;-78